General Aviation Weather

Text Reports

Enter one or more of the following location identifiers separated by a space:

Zip Code, Four-Character ICAO or Three-Character IATA airport codes.

METAR - Aviation Routine Weather Report
ETSA - Landsberg,
Updated at 2:20 PM GMT on July 31, 2015 (4:20 PM CEST):
METAR ETSA 311420Z 04012KT 9999 FEW050 SCT250 23/05 Q1015 BLU+FCST CANCEL
TAF - Terminal Area Forecast
ETSA - Landsberg,
Updated at 2:20 PM GMT on July 31, 2015 (4:20 PM CEST):
TAF ETSA 311028Z 3111/3120 05007KT 9999 NSW FEW050 BY ETGL=
TAF AMD ETSI 311026Z 3111/3120 09005KT 9999 NSW FEW055 CANCEL
     1200=

Decoded:
ID: ETSA   Landsberg (GER-, DL
REPORT TIME: 30 22:25
VALID TIME: 30 July AT 23:00Z to 31 July AT 11:00Z.
INITIAL WX
   WIND: VARIABLE AT 3
   WEATHER: NSW
   CLOUDS: 60 SCT
WX BECOMING FROM 06Z TO 08Z
   WINDS: 50 AT 7
   WEATHER: NSW
   CLOUDS: 70 FEW
   CLOUDS: 220 SCT
   COMMENTS: BY ETGL= 

PIREP - Pilot Weather Report
ETSA - Landsberg,
Updated at 2:20 PM GMT on July 31, 2015 (4:20 PM CEST):
No PIREP is currently available for this location.
AIRMET - Airmens Meteorological Information
ETSA - Landsberg,
Updated at 2:20 PM GMT on July 31, 2015 (4:20 PM CEST):
No AIRMET is currently available for this location.
SIGMET - Significant Meteorological Information
ETSA - Landsberg,
Updated at 2:20 PM GMT on July 31, 2015 (4:20 PM CEST):
No SIGMET is currently available for this location.
NOTAM - Notice to Airmen
ETSA - Landsberg,
Updated at 2:20 PM GMT on July 31, 2015 (4:20 PM CEST):
No NOTAM is currently available for this location.
Forecast Area
ETSA - Landsberg,
Updated at 2:20 PM GMT on July 31, 2015 (4:20 PM CEST):
No NOTAM is currently available for this location.
Aviation Weather Maps